createdAt,value
2019-01-17T00:04:32.639Z,7.97
2019-01-17T00:09:37.584Z,6.80
2019-01-17T00:14:47.971Z,8.50
2019-01-17T00:19:59.343Z,10.53
2019-01-17T00:25:18.917Z,9.07
2019-01-17T00:30:32.704Z,6.63
2019-01-17T00:35:37.732Z,8.17
2019-01-17T00:40:59.415Z,7.10
2019-01-17T00:46:04.217Z,6.60
2019-01-17T00:51:12.173Z,6.43
2019-01-17T00:56:16.913Z,6.17
2019-01-17T01:01:37.364Z,6.30
2019-01-17T01:06:52.042Z,5.47
2019-01-17T01:12:00.201Z,5.40
2019-01-17T01:17:20.624Z,4.95
2019-01-17T01:22:42.051Z,4.10
2019-01-17T01:27:56.092Z,4.63
2019-01-17T01:33:09.807Z,4.37
2019-01-17T01:38:15.096Z,3.40
2019-01-17T01:43:38.409Z,4.03
2019-01-17T01:48:46.130Z,3.70
2019-01-17T01:53:49.302Z,3.95
2019-01-17T01:58:52.833Z,3.00
2019-01-17T02:03:56.260Z,3.47
2019-01-17T02:08:59.657Z,2.80
2019-01-17T02:14:02.901Z,2.87
2019-01-17T02:19:05.953Z,3.20
2019-01-17T02:24:09.111Z,2.83
2019-01-17T02:29:12.760Z,2.70
2019-01-17T02:34:16.268Z,2.57
2019-01-17T02:39:19.334Z,2.60
2019-01-17T02:44:22.876Z,2.60
2019-01-17T02:49:26.273Z,2.60
2019-01-17T02:54:35.746Z,2.80
2019-01-17T02:59:34.804Z,2.40
2019-01-17T03:04:37.869Z,2.57
2019-01-17T03:09:41.544Z,2.50
2019-01-17T03:14:44.954Z,2.33
2019-01-17T03:19:48.257Z,2.60
2019-01-17T03:24:51.594Z,2.40
2019-01-17T03:29:54.673Z,2.63
2019-01-17T03:34:58.061Z,2.20
2019-01-17T03:40:01.142Z,2.50
2019-01-17T03:45:05.893Z,2.27
2019-01-17T03:50:12.959Z,2.00
2019-01-17T03:55:16.703Z,2.00
2019-01-17T04:00:20.443Z,1.90
2019-01-17T04:05:23.505Z,1.80
2019-01-17T04:10:27.340Z,1.67
2019-01-17T04:15:30.739Z,1.60
2019-01-17T04:20:33.834Z,1.60
2019-01-17T04:25:37.483Z,1.50
2019-01-17T04:30:40.891Z,1.60
2019-01-17T04:35:43.961Z,1.50
2019-01-17T04:40:47.025Z,1.40
2019-01-17T04:45:50.733Z,2.00
2019-01-17T04:50:53.817Z,1.50
2019-01-17T04:55:57.589Z,1.60
2019-01-17T05:01:01.046Z,1.70
2019-01-17T05:06:04.199Z,2.07
2019-01-17T05:11:07.288Z,2.10
2019-01-17T05:16:10.636Z,1.70
2019-01-17T05:21:13.710Z,2.00
2019-01-17T05:26:17.447Z,2.30
2019-01-17T05:31:20.868Z,2.10
2019-01-17T05:36:23.934Z,1.90
2019-01-17T05:41:27.145Z,1.90
2019-01-17T05:46:30.611Z,1.77
2019-01-17T05:51:34.086Z,1.80
2019-01-17T05:56:37.182Z,1.90
2019-01-17T06:01:40.543Z,2.10
2019-01-17T06:06:43.889Z,1.80
2019-01-17T06:11:47.284Z,1.70
2019-01-17T06:16:50.900Z,1.63
2019-01-17T06:21:54.323Z,1.60
2019-01-17T06:26:57.727Z,1.60
2019-01-17T06:32:01.422Z,1.60
2019-01-17T06:37:04.742Z,1.70
2019-01-17T06:42:07.937Z,1.40
2019-01-17T06:47:11.074Z,1.67
2019-01-17T06:52:16.810Z,1.40
2019-01-17T06:57:20.234Z,1.43
2019-01-17T07:02:23.669Z,1.40
2019-01-17T07:07:27.080Z,1.50
2019-01-17T07:12:30.483Z,1.60
2019-01-17T07:17:33.910Z,1.50
2019-01-17T07:22:37.325Z,1.50
2019-01-17T07:27:40.738Z,1.60
2019-01-17T07:32:44.138Z,2.00
2019-01-17T07:37:47.859Z,2.10
2019-01-17T07:42:51.272Z,1.80
2019-01-17T07:47:54.702Z,1.60
2019-01-17T07:52:57.786Z,1.80
2019-01-17T07:58:01.218Z,1.70
2019-01-17T08:03:04.486Z,1.70
2019-01-17T08:08:07.562Z,1.80
2019-01-17T08:13:10.970Z,1.90
2019-01-17T08:18:18.685Z,2.03
2019-01-17T08:23:19.418Z,1.77
2019-01-17T08:28:22.831Z,1.90
2019-01-17T08:33:26.623Z,1.80
2019-01-17T08:38:30.031Z,2.00
2019-01-17T08:43:33.402Z,1.60
2019-01-17T08:48:36.810Z,1.97
2019-01-17T08:53:39.901Z,1.87
2019-01-17T08:58:43.628Z,1.67
2019-01-17T09:03:47.052Z,1.60
2019-01-17T09:08:50.133Z,1.70
2019-01-17T09:13:53.475Z,1.70
2019-01-17T09:18:56.558Z,2.40
2019-01-17T09:23:59.642Z,1.50
2019-01-17T09:29:03.051Z,1.50
2019-01-17T09:34:06.415Z,2.03
2019-01-17T09:39:09.828Z,1.87
2019-01-17T09:44:13.560Z,2.73
2019-01-17T09:49:17.259Z,1.80
2019-01-17T09:54:20.670Z,2.90
2019-01-17T09:59:23.760Z,2.47
2019-01-17T10:04:27.162Z,2.77
2019-01-17T10:09:30.251Z,2.00
2019-01-17T10:14:33.902Z,1.97
2019-01-17T10:19:38.514Z,2.33
2019-01-17T10:25:04.860Z,2.40
2019-01-17T10:30:09.482Z,1.40
2019-01-17T10:35:17.099Z,3.00
2019-01-17T10:40:40.167Z,2.77
2019-01-17T10:45:55.678Z,2.07
2019-01-17T10:51:16.717Z,1.30
2019-01-17T10:56:27.725Z,1.50
2019-01-17T11:01:46.970Z,2.40
2019-01-17T11:06:51.582Z,1.60
2019-01-17T11:11:56.462Z,1.50
2019-01-17T11:17:28.433Z,1.83
2019-01-17T11:22:42.003Z,1.40
2019-01-17T11:27:48.543Z,1.70
2019-01-17T11:33:20.831Z,1.33
2019-01-17T11:38:28.494Z,1.40
2019-01-17T11:43:43.828Z,1.30
2019-01-17T11:49:05.283Z,1.43
2019-01-17T11:54:09.900Z,1.80
2019-01-17T11:59:16.654Z,1.53
2019-01-17T12:04:31.502Z,1.47
2019-01-17T12:09:35.255Z,1.20
2019-01-17T12:14:38.581Z,3.77
2019-01-17T12:19:41.991Z,1.40
2019-01-17T12:24:45.402Z,1.60
2019-01-17T12:29:48.497Z,1.13
2019-01-17T12:34:53.551Z,1.67
2019-01-17T12:39:56.954Z,1.40
2019-01-17T12:45:00.701Z,1.20
2019-01-17T12:50:05.568Z,1.10
2019-01-17T12:55:09.215Z,1.10
2019-01-17T13:00:18.041Z,1.67
2019-01-17T13:05:21.130Z,1.63
2019-01-17T13:10:24.203Z,2.10
2019-01-17T13:15:27.892Z,2.40
2019-01-17T13:20:31.374Z,2.93
2019-01-17T13:25:35.084Z,2.60
2019-01-17T13:30:38.806Z,1.90
2019-01-17T13:35:41.891Z,2.20
2019-01-17T13:40:44.964Z,2.30
2019-01-17T13:45:48.047Z,3.20
2019-01-17T13:50:51.763Z,2.83
2019-01-17T13:55:55.428Z,2.63
2019-01-17T14:00:59.078Z,5.17
2019-01-17T14:06:02.827Z,3.80
2019-01-17T14:11:05.918Z,3.50
2019-01-17T14:16:09.053Z,5.33
2019-01-17T14:21:12.139Z,5.03
2019-01-17T14:26:15.899Z,4.87
2019-01-17T14:31:19.317Z,5.73
2019-01-17T14:36:22.777Z,5.80
2019-01-17T14:41:25.854Z,7.00
2019-01-17T14:46:29.515Z,7.30
2019-01-17T14:51:32.941Z,7.13
2019-01-17T14:56:36.054Z,5.10
2019-01-17T15:01:39.521Z,4.23
2019-01-17T15:06:43.274Z,4.73
2019-01-17T15:11:46.682Z,5.10
2019-01-17T15:16:50.095Z,5.37
2019-01-17T15:21:53.831Z,5.63
2019-01-17T15:26:57.248Z,7.70
2019-01-17T15:32:00.670Z,5.77
2019-01-17T15:37:04.092Z,4.93
2019-01-17T15:42:07.502Z,3.40
2019-01-17T15:47:13.258Z,4.03
2019-01-17T15:52:15.807Z,6.13
2019-01-17T15:57:19.250Z,5.37
2019-01-17T16:02:22.689Z,4.33
2019-01-17T16:07:26.389Z,3.23
2019-01-17T16:12:29.497Z,3.15
2019-01-17T16:17:33.229Z,5.00
2019-01-17T16:22:36.743Z,2.30
2019-01-17T16:27:41.954Z,3.60
2019-01-17T16:32:45.105Z,4.20
2019-01-17T16:37:48.265Z,4.20
2019-01-17T16:42:51.732Z,5.23
2019-01-17T16:47:55.434Z,5.60
2019-01-17T16:52:58.723Z,4.00
2019-01-17T16:58:02.264Z,5.63
2019-01-17T17:03:06.119Z,4.77
2019-01-17T17:08:09.574Z,6.67
2019-01-17T17:13:13.071Z,7.10
2019-01-17T17:18:16.514Z,5.47
2019-01-17T17:23:19.970Z,6.22
2019-01-17T17:28:23.993Z,9.87
2019-01-17T17:33:27.526Z,5.37
2019-01-17T17:38:31.030Z,6.33
2019-01-17T17:43:34.730Z,6.67
2019-01-17T17:48:38.712Z,4.53
2019-01-17T17:53:41.950Z,8.23
2019-01-17T17:58:45.109Z,7.80
2019-01-17T18:03:48.278Z,6.90
2019-01-17T18:08:51.457Z,7.87
2019-01-17T18:13:54.626Z,9.40
2019-01-17T18:18:58.087Z,8.07
2019-01-17T18:24:01.582Z,8.57
2019-01-17T18:29:04.741Z,8.13
2019-01-17T18:34:07.919Z,29.67
2019-01-17T18:39:12.215Z,5.70
2019-01-17T18:44:15.388Z,6.43
2019-01-17T18:49:19.168Z,6.27
2019-01-17T18:54:22.650Z,6.07
2019-01-17T18:59:26.154Z,5.43
2019-01-17T19:04:29.328Z,10.53
2019-01-17T19:09:32.503Z,8.37
2019-01-17T19:14:36.381Z,6.60
2019-01-17T19:19:39.882Z,10.00
2019-01-17T19:24:43.073Z,7.40
2019-01-17T19:29:46.899Z,8.10
2019-01-17T19:34:50.298Z,8.10
2019-01-17T19:39:53.469Z,8.50
2019-01-17T19:44:56.624Z,8.70
2019-01-17T19:50:00.447Z,9.30
2019-01-17T19:55:05.093Z,7.33
2019-01-17T20:00:17.599Z,7.63
2019-01-17T20:05:22.276Z,10.93
2019-01-17T20:10:28.202Z,10.37
2019-01-17T20:15:31.675Z,8.67
2019-01-17T20:20:34.910Z,10.67
2019-01-17T20:25:38.078Z,8.10
2019-01-17T20:30:43.166Z,10.30
2019-01-17T20:35:46.661Z,10.33
2019-01-17T20:40:49.842Z,10.23
2019-01-17T20:45:53.334Z,9.10
2019-01-17T20:50:56.822Z,10.17
2019-01-17T20:56:01.533Z,8.83
2019-01-17T21:01:11.966Z,9.93
2019-01-17T21:06:15.126Z,11.30
2019-01-17T21:11:18.281Z,13.60
2019-01-17T21:16:21.774Z,13.87
2019-01-17T21:21:25.209Z,13.90
2019-01-17T21:26:29.484Z,15.63
2019-01-17T21:31:32.934Z,15.17
2019-01-17T21:36:36.346Z,13.67
2019-01-17T21:41:39.774Z,14.13
2019-01-17T21:46:43.466Z,13.05
2019-01-17T21:51:47.196Z,12.03
2019-01-17T21:56:50.621Z,12.10
2019-01-17T22:01:54.033Z,11.50
2019-01-17T22:06:57.450Z,11.77
2019-01-17T22:12:00.865Z,12.17
2019-01-17T22:17:04.353Z,11.33
2019-01-17T22:22:07.798Z,9.20
2019-01-17T22:27:10.886Z,8.47
2019-01-17T22:32:13.990Z,8.77
2019-01-17T22:37:18.170Z,10.53
2019-01-17T22:42:21.298Z,6.53
2019-01-17T22:47:24.956Z,7.73
2019-01-17T22:52:28.370Z,8.40
2019-01-17T22:57:31.798Z,6.93
2019-01-17T23:02:34.877Z,7.87
2019-01-17T23:07:38.221Z,10.80
2019-01-17T23:12:41.634Z,8.33
2019-01-17T23:17:45.345Z,10.50
2019-01-17T23:22:48.780Z,10.10
2019-01-17T23:27:52.185Z,10.73
2019-01-17T23:32:55.263Z,10.23
2019-01-17T23:37:58.674Z,9.53
2019-01-17T23:43:02.094Z,10.03
2019-01-17T23:48:05.442Z,11.57
2019-01-17T23:53:08.847Z,12.10
2019-01-17T23:58:12.280Z,10.87
